createdAt,value
2023-05-08T00:04:15.268Z,12.10
2023-05-08T00:09:19.838Z,11.80
2023-05-08T00:14:26.175Z,11.10
2023-05-08T00:19:29.538Z,11.20
2023-05-08T00:24:32.738Z,10.60
2023-05-08T00:29:36.104Z,10.00
2023-05-08T00:34:39.437Z,9.60
2023-05-08T00:39:43.057Z,10.00
2023-05-08T00:44:46.439Z,10.10
2023-05-08T00:49:49.933Z,9.80
2023-05-08T00:54:54.153Z,9.70
2023-05-08T00:59:59.586Z,9.50
2023-05-08T01:05:04.022Z,9.20
2023-05-08T01:10:08.278Z,8.60
2023-05-08T01:15:16.995Z,9.00
2023-05-08T01:20:45.467Z,9.30
2023-05-08T01:25:57.644Z,8.40
2023-05-08T01:31:39.302Z,8.80
2023-05-08T01:36:50.786Z,8.20
2023-05-08T01:42:19.416Z,8.60
2023-05-08T01:47:29.208Z,9.20
2023-05-08T01:52:47.536Z,7.90
2023-05-08T01:57:54.581Z,8.20
2023-05-08T02:02:59.375Z,9.50
2023-05-08T02:08:04.316Z,8.90
2023-05-08T02:13:10.379Z,8.40
2023-05-08T02:18:20.879Z,8.40
2023-05-08T02:23:26.839Z,8.30
2023-05-08T02:28:41.554Z,8.20
2023-05-08T02:33:45.859Z,7.40
2023-05-08T02:38:56.868Z,8.10
2023-05-08T02:44:00.382Z,8.60
2023-05-08T02:49:08.691Z,8.10
2023-05-08T02:54:23.157Z,8.00
2023-05-08T02:59:37.871Z,7.80
2023-05-08T03:04:51.625Z,8.40
2023-05-08T03:10:03.272Z,7.50
2023-05-08T03:15:17.513Z,7.20
2023-05-08T03:20:22.727Z,7.50
2023-05-08T03:25:27.864Z,7.60
2023-05-08T03:30:32.322Z,7.20
2023-05-08T03:35:40.268Z,7.40
2023-05-08T03:40:46.510Z,7.40
2023-05-08T03:45:51.544Z,7.60
2023-05-08T03:50:56.071Z,7.20
2023-05-08T03:56:03.176Z,7.20
2023-05-08T04:01:40.098Z,7.00
2023-05-08T04:06:52.695Z,7.80
2023-05-08T04:12:21.127Z,8.00
2023-05-08T04:18:09.136Z,7.70
2023-05-08T04:23:17.573Z,8.00
2023-05-08T04:28:22.714Z,7.70
2023-05-08T04:33:26.905Z,8.00
2023-05-08T04:38:30.579Z,8.40
2023-05-08T04:43:35.152Z,8.00
2023-05-08T04:48:38.827Z,9.30
2023-05-08T04:53:43.140Z,9.60
2023-05-08T04:58:46.797Z,8.60
2023-05-08T05:03:50.916Z,6.30
2023-05-08T05:08:55.099Z,7.30
2023-05-08T05:13:58.550Z,5.20
2023-05-08T05:19:02.055Z,4.40
2023-05-08T05:24:06.947Z,4.50
2023-05-08T05:29:10.357Z,4.90
2023-05-08T05:34:14.113Z,4.10
2023-05-08T05:39:17.648Z,3.60
2023-05-08T05:44:21.226Z,3.50
2023-05-08T05:49:24.747Z,3.40
2023-05-08T05:54:28.162Z,2.90
2023-05-08T05:59:32.171Z,2.60
2023-05-08T06:04:36.508Z,2.90
2023-05-08T06:09:44.927Z,2.80
2023-05-08T06:14:48.726Z,3.00
2023-05-08T06:19:56.099Z,3.10
2023-05-08T06:25:00.015Z,2.90
2023-05-08T06:30:04.869Z,2.70
2023-05-08T06:35:08.748Z,2.60
2023-05-08T06:40:13.055Z,2.80
2023-05-08T06:45:16.552Z,2.50
2023-05-08T06:50:20.427Z,2.30
2023-05-08T06:55:23.990Z,2.70
2023-05-08T07:00:27.452Z,2.70
2023-05-08T07:05:30.740Z,2.60
2023-05-08T07:10:34.462Z,2.50
2023-05-08T07:15:39.152Z,2.90
2023-05-08T07:20:42.519Z,2.70
2023-05-08T07:25:46.183Z,3.10
2023-05-08T07:30:49.838Z,3.20
2023-05-08T07:35:53.180Z,3.50
2023-05-08T07:41:01.625Z,3.30
2023-05-08T07:46:06.041Z,3.20
2023-05-08T07:51:11.378Z,3.40
2023-05-08T07:56:23.802Z,2.80
2023-05-08T08:01:27.495Z,3.10
2023-05-08T08:06:30.852Z,2.90
2023-05-08T08:11:34.162Z,2.80
2023-05-08T08:16:37.503Z,3.00
2023-05-08T08:21:44.107Z,3.00
2023-05-08T08:26:47.534Z,3.00
2023-05-08T08:31:50.844Z,2.90
2023-05-08T08:37:14.340Z,3.00
2023-05-08T08:42:17.849Z,3.10
2023-05-08T08:47:27.098Z,3.20
2023-05-08T08:52:51.499Z,3.40
2023-05-08T08:57:57.660Z,3.20
2023-05-08T09:03:01.257Z,3.20
2023-05-08T09:08:06.062Z,3.50
2023-05-08T09:13:09.418Z,3.50
2023-05-08T09:18:13.004Z,3.20
2023-05-08T09:23:17.627Z,2.90
2023-05-08T09:28:25.709Z,2.90
2023-05-08T09:33:30.872Z,3.00
2023-05-08T09:38:36.239Z,2.50
2023-05-08T09:43:39.720Z,2.90
2023-05-08T09:48:42.941Z,3.00
2023-05-08T09:53:52.334Z,2.80
2023-05-08T09:58:55.716Z,2.60
2023-05-08T10:03:59.908Z,2.40
2023-05-08T10:09:14.405Z,2.70
2023-05-08T10:14:18.625Z,2.70
2023-05-08T10:19:28.437Z,2.80
2023-05-08T10:24:33.924Z,2.70
2023-05-08T10:29:56.088Z,2.90
2023-05-08T10:35:00.782Z,2.50
2023-05-08T10:40:06.797Z,2.70
2023-05-08T10:45:22.621Z,2.60
2023-05-08T10:50:59.067Z,2.70
2023-05-08T10:56:02.987Z,2.60
2023-05-08T11:01:09.573Z,2.90
2023-05-08T11:06:15.385Z,2.70
2023-05-08T11:11:33.592Z,2.40
2023-05-08T11:16:56.785Z,2.50
2023-05-08T11:22:16.548Z,2.40
2023-05-08T11:27:51.338Z,2.50
2023-05-08T11:33:04.030Z,2.50
2023-05-08T11:38:38.664Z,2.90
2023-05-08T11:44:09.552Z,2.80
2023-05-08T11:49:16.989Z,2.50
2023-05-08T11:54:22.033Z,2.80
2023-05-08T11:59:26.106Z,2.70
2023-05-08T12:04:44.503Z,2.60
2023-05-08T12:09:48.294Z,2.60
2023-05-08T12:14:52.098Z,2.80
2023-05-08T12:19:56.639Z,2.60
2023-05-08T12:25:00.272Z,2.60
2023-05-08T12:30:09.466Z,2.60
2023-05-08T12:35:24.932Z,2.60
2023-05-08T12:40:45.435Z,2.50
2023-05-08T12:45:52.763Z,2.60
2023-05-08T12:51:02.438Z,2.50
2023-05-08T12:56:06.515Z,2.70
2023-05-08T13:01:13.543Z,2.70
2023-05-08T13:06:30.216Z,2.50
2023-05-08T13:11:34.463Z,2.50
2023-05-08T13:16:52.007Z,2.40
2023-05-08T13:21:55.561Z,2.20
2023-05-08T13:26:58.805Z,2.40
2023-05-08T13:32:02.162Z,2.30
2023-05-08T13:37:05.587Z,2.30
2023-05-08T13:42:08.854Z,2.40
2023-05-08T13:47:12.050Z,2.50
2023-05-08T13:52:15.316Z,2.40
2023-05-08T13:57:18.628Z,2.30
2023-05-08T14:02:22.278Z,2.30
2023-05-08T14:07:26.349Z,2.30
2023-05-08T14:12:29.853Z,2.40
2023-05-08T14:17:33.252Z,2.50
2023-05-08T14:22:36.690Z,2.50
2023-05-08T14:27:40.225Z,2.60
2023-05-08T14:32:43.623Z,2.20
2023-05-08T14:37:46.919Z,2.40
2023-05-08T14:42:50.264Z,2.60
2023-05-08T14:47:53.642Z,2.40
2023-05-08T14:52:57.185Z,2.90
2023-05-08T14:58:00.971Z,2.60
2023-05-08T15:03:04.305Z,2.40
2023-05-08T15:08:08.685Z,2.60
2023-05-08T15:13:12.003Z,2.40
2023-05-08T15:18:15.419Z,2.90
2023-05-08T15:23:21.136Z,2.40
2023-05-08T15:28:24.775Z,2.60
2023-05-08T15:33:28.148Z,2.40
2023-05-08T15:38:31.395Z,2.40
2023-05-08T15:43:34.620Z,2.60
2023-05-08T15:48:37.965Z,2.60
2023-05-08T15:53:41.515Z,2.20
2023-05-08T15:58:45.012Z,2.50
2023-05-08T16:03:48.454Z,2.50
2023-05-08T16:08:52.480Z,2.70
2023-05-08T16:13:55.962Z,2.40
2023-05-08T16:18:59.514Z,2.30
2023-05-08T16:24:08.731Z,2.70
2023-05-08T16:29:12.489Z,2.50
2023-05-08T16:34:16.257Z,2.60
2023-05-08T16:39:19.870Z,2.30
2023-05-08T16:44:23.287Z,2.80
2023-05-08T16:49:27.124Z,2.80
2023-05-08T16:54:30.971Z,2.50
2023-05-08T16:59:34.228Z,2.50
2023-05-08T17:04:38.016Z,2.50
2023-05-08T17:09:53.113Z,2.50
2023-05-08T17:14:57.135Z,3.20
2023-05-08T17:20:00.337Z,3.10
2023-05-08T17:25:03.824Z,3.10
2023-05-08T17:30:08.830Z,2.80
2023-05-08T17:35:12.251Z,2.80
2023-05-08T17:40:16.518Z,3.00
2023-05-08T17:45:45.125Z,3.20
2023-05-08T17:50:54.007Z,3.10
2023-05-08T17:55:57.917Z,3.20
2023-05-08T18:01:38.431Z,2.80
2023-05-08T18:07:33.335Z,3.10
2023-05-08T18:13:04.416Z,3.30
2023-05-08T18:18:07.940Z,3.70
2023-05-08T18:23:11.468Z,3.90
2023-05-08T18:28:14.770Z,4.20
2023-05-08T18:33:18.233Z,8.30
2023-05-08T18:38:37.061Z,4.60
2023-05-08T18:43:41.749Z,14.80
2023-05-08T18:48:45.185Z,40.10
2023-05-08T18:53:48.575Z,20.20
2023-05-08T18:58:55.191Z,6.10
2023-05-08T19:04:19.893Z,5.90
2023-05-08T19:09:26.054Z,5.80
2023-05-08T19:20:09.410Z,6.50
2023-05-08T19:25:37.260Z,6.70
2023-05-08T19:31:22.921Z,8.20
2023-05-08T19:36:38.838Z,8.30
2023-05-08T19:42:02.978Z,11.40
2023-05-08T19:47:06.991Z,10.50
2023-05-08T19:52:10.569Z,10.60
2023-05-08T19:57:14.036Z,10.40
2023-05-08T20:03:01.489Z,11.80
2023-05-08T20:14:46.329Z,10.80
2023-05-08T20:19:50.230Z,9.20
2023-05-08T20:24:53.878Z,7.90
2023-05-08T20:30:17.774Z,7.90
2023-05-08T20:42:02.775Z,8.30
2023-05-08T20:47:09.193Z,10.00
2023-05-08T20:52:12.635Z,9.80
2023-05-08T20:57:17.976Z,10.20
2023-05-08T21:02:21.426Z,9.50
2023-05-08T21:07:24.778Z,10.50
2023-05-08T21:12:28.045Z,23.60
2023-05-08T21:17:31.455Z,25.80
2023-05-08T21:22:34.924Z,13.00
2023-05-08T21:27:50.082Z,18.80
2023-05-08T21:32:53.613Z,12.80
2023-05-08T21:37:57.158Z,12.40
2023-05-08T21:43:01.386Z,13.20
2023-05-08T21:48:05.185Z,12.60
2023-05-08T21:53:08.546Z,13.10
2023-05-08T21:58:11.843Z,13.20
2023-05-08T22:03:15.415Z,12.70
2023-05-08T22:08:18.839Z,12.60
2023-05-08T22:13:22.433Z,12.10
2023-05-08T22:18:26.148Z,14.30
2023-05-08T22:23:29.370Z,13.90
2023-05-08T22:28:32.895Z,14.70
2023-05-08T22:33:36.951Z,16.20
2023-05-08T22:38:43.442Z,16.00
2023-05-08T22:43:46.990Z,17.30
2023-05-08T22:48:52.954Z,17.60
2023-05-08T22:53:57.058Z,17.30
2023-05-08T22:59:00.512Z,17.50
2023-05-08T23:04:03.964Z,17.70
2023-05-08T23:09:07.483Z,20.70
2023-05-08T23:14:10.889Z,21.10
2023-05-08T23:19:14.487Z,20.40
2023-05-08T23:24:19.264Z,21.60
2023-05-08T23:29:23.620Z,18.40
2023-05-08T23:34:29.465Z,18.30
2023-05-08T23:39:37.866Z,20.60
2023-05-08T23:45:01.391Z,21.50
2023-05-08T23:50:05.458Z,22.10
2023-05-08T23:55:12.173Z,20.90
